Arietta, New York
Current Conditions -  °F | °C
As of 7:55 PM on Sunday 23 Nov 2014 (Local Time) from KNY0 Reporting Station
Scattered Clouds Scattered Clouds  
Wind Chill: 37°   Ceiling: Unl
Heat Index: 40°   Visibility: 10mi
Dew Point: 32°   Wind: 5mph
Humidity: 73%   Direction: 80°E
Pressure: 30.03"   Gusts: NA
Location:  43.5975°N, 74.5775°W
Report Text: KNY0 240055Z AUTO 08004KT 10SM SCT080 05/00 A3003 RMK AO2 T00450001
Loading
Personal Weather Stations






























Interactive Weather Map New forecast layout! Learn more

10-Day Weather Forecast

Advertisements
Track Severe Weather on mobile